Spartansburg, Pennsylvania
Current Conditions -  °F | °C
As of 10:42 AM on Thursday 30 Oct 2014 (Local Time) from KGKJ Reporting Station
Light Rain Light Rain  
Wind Chill: 42°   Ceiling: 2000
Heat Index: 44°   Visibility: 1.7mi
Dew Point: 39°   Wind: 5mph
Humidity: 82%   Direction: 350°N
Pressure: 30.09"   Gusts: NA
Location:  41.82°N, 79.68°W
Report Text: KGKJ 301442Z AUTO 35004KT 1 3/4SM -RA BKN020 BKN027 OVC032 07/04 A3009 RMK AO2 RAE17B36 P0002 T00670039 TSNO
Loading
Personal Weather Stations






























Interactive Weather Map
Tropical Storm Tracking
New forecast layout! Learn more

10-Day Weather Forecast

Advertisements
Track Severe Weather on mobile